createdAt,value
2022-09-11T00:00:39.612Z,4.53
2022-09-11T00:03:23.950Z,4.70
2022-09-11T00:05:55.110Z,6.30
2022-09-11T00:08:22.942Z,6.03
2022-09-11T00:10:51.068Z,9.83
2022-09-11T00:13:27.611Z,5.43
2022-09-11T00:16:58.503Z,5.90
2022-09-11T00:19:28.982Z,6.17
2022-09-11T00:21:58.672Z,9.70
2022-09-11T00:24:26.189Z,6.80
2022-09-11T00:26:54.550Z,7.57
2022-09-11T00:29:22.376Z,7.37
2022-09-11T00:31:50.486Z,10.10
2022-09-11T00:34:18.122Z,8.13
2022-09-11T00:36:48.344Z,8.93
2022-09-11T00:39:16.023Z,11.77
2022-09-11T00:41:46.143Z,9.73
2022-09-11T00:44:50.818Z,11.20
2022-09-11T00:47:19.257Z,10.70
2022-09-11T00:49:49.970Z,11.67
2022-09-11T00:52:21.317Z,10.40
2022-09-11T00:54:53.210Z,11.83
2022-09-11T00:57:24.059Z,16.70
2022-09-11T00:59:52.939Z,14.20
2022-09-11T01:02:27.176Z,12.47
2022-09-11T01:04:55.733Z,13.20
2022-09-11T01:07:25.859Z,13.43
2022-09-11T01:09:55.183Z,13.57
2022-09-11T01:12:24.907Z,12.60
2022-09-11T01:14:55.990Z,13.67
2022-09-11T01:17:28.541Z,12.90
2022-09-11T01:20:14.424Z,12.73
2022-09-11T01:23:17.892Z,11.97
2022-09-11T01:26:00.630Z,13.67
2022-09-11T01:28:33.659Z,13.13
2022-09-11T01:31:07.454Z,12.30
2022-09-11T01:33:39.769Z,12.17
2022-09-11T01:36:10.099Z,14.50
2022-09-11T01:38:40.937Z,14.67
2022-09-11T01:41:10.656Z,12.67
2022-09-11T01:43:42.950Z,12.93
2022-09-11T01:46:10.669Z,12.53
2022-09-11T01:48:41.155Z,15.00
2022-09-11T01:51:10.242Z,15.10
2022-09-11T01:53:40.383Z,12.60
2022-09-11T01:56:11.218Z,15.70
2022-09-11T01:58:40.497Z,14.77
2022-09-11T02:01:10.668Z,13.27
2022-09-11T02:03:41.354Z,14.87
2022-09-11T02:06:11.689Z,15.17
2022-09-11T02:08:42.257Z,14.47
2022-09-11T02:11:12.267Z,14.00
2022-09-11T02:13:45.731Z,13.03
2022-09-11T02:16:19.666Z,14.00
2022-09-11T02:18:58.663Z,13.70
2022-09-11T02:21:27.695Z,13.37
2022-09-11T02:23:55.684Z,12.70
2022-09-11T02:26:25.062Z,15.13
2022-09-11T02:28:54.872Z,14.23
2022-09-11T02:31:22.805Z,14.30
2022-09-11T02:33:51.222Z,16.07
2022-09-11T02:36:35.533Z,12.87
2022-09-11T02:39:17.013Z,15.07
2022-09-11T02:41:55.248Z,13.77
2022-09-11T02:44:29.635Z,15.87
2022-09-11T02:47:07.470Z,15.97
2022-09-11T02:49:42.983Z,14.10
2022-09-11T02:52:18.359Z,16.07
2022-09-11T02:54:53.485Z,15.30
2022-09-11T02:57:26.419Z,13.30
2022-09-11T03:00:00.253Z,13.93
2022-09-11T03:02:28.681Z,15.63
2022-09-11T03:04:56.665Z,15.20
2022-09-11T03:07:25.167Z,14.77
2022-09-11T03:09:52.884Z,15.33
2022-09-11T03:12:20.331Z,16.23
2022-09-11T03:14:48.542Z,16.53
2022-09-11T03:17:17.557Z,21.87
2022-09-11T03:19:44.998Z,19.33
2022-09-11T03:22:12.584Z,15.43
2022-09-11T03:24:40.106Z,17.10
2022-09-11T03:27:07.742Z,20.27
2022-09-11T03:29:35.154Z,17.00
2022-09-11T03:32:02.912Z,16.17
2022-09-11T03:34:31.734Z,15.83
2022-09-11T03:37:00.175Z,19.27
2022-09-11T03:39:27.607Z,16.30
2022-09-11T03:41:55.181Z,15.40
2022-09-11T03:44:23.129Z,18.60
2022-09-11T03:46:50.626Z,17.47
2022-09-11T03:49:18.089Z,21.57
2022-09-11T03:51:47.757Z,14.93
2022-09-11T03:54:16.002Z,14.93
2022-09-11T03:56:43.847Z,13.90
2022-09-11T03:59:11.296Z,15.27
2022-09-11T04:01:38.803Z,15.30
2022-09-11T04:04:06.321Z,13.30
2022-09-11T04:06:33.878Z,13.70
2022-09-11T04:09:02.692Z,16.43
2022-09-11T04:11:33.309Z,13.40
2022-09-11T04:14:04.326Z,13.13
2022-09-11T04:16:32.827Z,14.10
2022-09-11T04:19:00.918Z,12.13
2022-09-11T04:21:29.035Z,13.67
2022-09-11T04:24:00.068Z,11.77
2022-09-11T04:26:30.724Z,15.13
2022-09-11T04:28:59.397Z,13.73
2022-09-11T04:31:27.620Z,12.97
2022-09-11T04:33:57.743Z,14.00
2022-09-11T04:36:26.946Z,12.40
2022-09-11T04:38:57.719Z,14.30
2022-09-11T04:41:26.138Z,13.43
2022-09-11T04:44:00.025Z,14.10
2022-09-11T04:46:30.022Z,13.43
2022-09-11T04:49:00.096Z,15.03
2022-09-11T04:51:30.045Z,13.03
2022-09-11T04:53:58.847Z,14.77
2022-09-11T04:56:28.029Z,14.10
2022-09-11T04:58:59.301Z,13.60
2022-09-11T05:01:28.809Z,11.97
2022-09-11T05:03:56.508Z,12.20
2022-09-11T05:06:24.057Z,15.93
2022-09-11T05:08:51.772Z,14.73
2022-09-11T05:11:20.900Z,16.63
2022-09-11T05:13:48.822Z,14.87
2022-09-11T05:16:18.519Z,18.47
2022-09-11T05:18:51.920Z,20.67
2022-09-11T05:21:22.385Z,16.00
2022-09-11T05:23:51.195Z,20.80
2022-09-11T05:26:19.704Z,18.63
2022-09-11T05:28:47.222Z,20.27
2022-09-11T05:31:17.747Z,20.53
2022-09-11T05:33:45.518Z,20.30
2022-09-11T05:36:14.592Z,25.13
2022-09-11T05:38:42.831Z,29.00
2022-09-11T05:41:12.505Z,25.43
2022-09-11T05:43:41.035Z,31.33
2022-09-11T05:46:11.793Z,26.60
2022-09-11T05:48:41.297Z,34.33
2022-09-11T05:51:12.797Z,31.00
2022-09-11T05:53:40.786Z,35.40
2022-09-11T05:56:09.657Z,33.27
2022-09-11T05:58:37.488Z,31.97
2022-09-11T06:01:08.214Z,31.53
2022-09-11T06:03:36.042Z,32.23
2022-09-11T06:06:06.500Z,30.50
2022-09-11T06:08:34.640Z,31.17
2022-09-11T06:11:03.315Z,29.90
2022-09-11T06:13:31.672Z,31.10
2022-09-11T06:15:59.099Z,28.03
2022-09-11T06:18:26.584Z,31.23
2022-09-11T06:20:57.707Z,39.20
2022-09-11T06:23:26.578Z,32.27
2022-09-11T06:25:54.750Z,38.17
2022-09-11T06:28:23.410Z,36.37
2022-09-11T06:30:51.257Z,32.67
2022-09-11T06:33:20.396Z,42.07
2022-09-11T06:35:58.580Z,38.27
2022-09-11T06:38:27.839Z,48.40
2022-09-11T06:40:55.669Z,38.10
2022-09-11T06:43:23.180Z,39.67
2022-09-11T06:45:50.643Z,38.37
2022-09-11T06:48:18.917Z,36.63
2022-09-11T06:50:46.618Z,33.50
2022-09-11T06:53:15.111Z,36.80
2022-09-11T06:55:43.875Z,32.90
2022-09-11T06:58:11.795Z,28.77
2022-09-11T07:00:39.359Z,31.87
2022-09-11T07:03:07.204Z,35.57
2022-09-11T07:05:34.639Z,32.60
2022-09-11T07:08:02.476Z,28.97
2022-09-11T07:10:29.951Z,30.87
2022-09-11T07:12:58.738Z,32.60
2022-09-11T07:15:26.182Z,26.23
2022-09-11T07:17:55.251Z,30.13
2022-09-11T07:20:23.189Z,30.03
2022-09-11T07:22:50.732Z,24.40
2022-09-11T07:25:18.546Z,27.17
2022-09-11T07:27:46.285Z,28.80
2022-09-11T07:30:15.315Z,23.50
2022-09-11T07:32:42.759Z,26.80
2022-09-11T07:35:10.211Z,35.57
2022-09-11T07:37:37.636Z,29.27
2022-09-11T07:40:05.942Z,29.27
2022-09-11T07:42:33.906Z,24.77
2022-09-11T07:45:01.332Z,25.83
2022-09-11T07:47:30.852Z,22.63
2022-09-11T07:49:58.303Z,24.90
2022-09-11T07:52:26.180Z,23.63
2022-09-11T07:54:55.744Z,27.70
2022-09-11T07:57:24.209Z,23.33
2022-09-11T07:59:51.657Z,25.47
2022-09-11T08:02:20.067Z,24.67
2022-09-11T08:04:49.122Z,26.50
2022-09-11T08:07:17.009Z,26.93
2022-09-11T08:09:44.452Z,24.47
2022-09-11T08:12:12.130Z,25.97
2022-09-11T08:14:39.605Z,30.17
2022-09-11T08:17:07.055Z,24.20
2022-09-11T08:19:34.529Z,24.47
2022-09-11T08:22:03.571Z,24.60
2022-09-11T08:24:31.069Z,24.77
2022-09-11T08:26:58.634Z,24.43
2022-09-11T08:29:26.186Z,29.50
2022-09-11T08:31:53.705Z,28.00
2022-09-11T08:34:22.182Z,25.80
2022-09-11T08:36:51.898Z,22.50
2022-09-11T08:39:20.726Z,24.07
2022-09-11T08:41:49.874Z,27.50
2022-09-11T08:44:21.871Z,24.80
2022-09-11T08:46:51.754Z,25.23
2022-09-11T08:49:24.524Z,23.93
2022-09-11T08:51:52.986Z,22.40
2022-09-11T08:54:27.516Z,30.77
2022-09-11T08:57:01.533Z,26.17
2022-09-11T08:59:34.921Z,22.87
2022-09-11T09:02:13.457Z,25.47
2022-09-11T09:04:56.790Z,21.73
2022-09-11T09:07:32.030Z,25.57
2022-09-11T09:10:04.801Z,22.63
2022-09-11T09:12:40.400Z,20.53
2022-09-11T09:15:17.958Z,22.53
2022-09-11T09:17:49.101Z,20.03
2022-09-11T09:20:22.485Z,17.60
2022-09-11T09:22:53.651Z,20.10
2022-09-11T09:25:23.733Z,18.27
2022-09-11T09:27:55.347Z,18.20
2022-09-11T09:30:27.215Z,17.37
2022-09-11T09:32:58.532Z,15.63
2022-09-11T09:35:39.577Z,19.70
2022-09-11T09:38:12.227Z,17.23
2022-09-11T09:40:47.006Z,17.10
2022-09-11T09:43:24.280Z,16.60
2022-09-11T09:46:02.564Z,15.40
2022-09-11T09:48:34.430Z,13.80
2022-09-11T09:51:04.005Z,13.73
2022-09-11T09:53:35.961Z,13.63
2022-09-11T09:56:05.902Z,17.70
2022-09-11T09:58:37.893Z,12.63
2022-09-11T10:01:08.171Z,13.30
2022-09-11T10:03:35.726Z,13.90
2022-09-11T10:06:03.201Z,12.80
2022-09-11T10:08:35.450Z,11.27
2022-09-11T10:11:05.699Z,13.10
2022-09-11T10:13:34.313Z,12.00
2022-09-11T10:16:03.681Z,10.50
2022-09-11T10:18:42.416Z,11.83
2022-09-11T10:21:22.442Z,11.83
2022-09-11T10:23:52.520Z,11.73
2022-09-11T10:26:25.995Z,13.07
2022-09-11T10:28:54.342Z,15.83
2022-09-11T10:31:22.687Z,13.80
2022-09-11T10:33:53.328Z,10.87
2022-09-11T10:36:24.333Z,13.50
2022-09-11T10:38:52.868Z,9.80
2022-09-11T10:41:24.881Z,10.40
2022-09-11T10:43:56.453Z,10.10
2022-09-11T10:46:28.217Z,8.83
2022-09-11T10:48:57.813Z,9.07
2022-09-11T10:51:27.261Z,12.23
2022-09-11T10:54:05.278Z,10.80
2022-09-11T10:56:40.000Z,11.10
2022-09-11T10:59:13.246Z,15.47
2022-09-11T11:01:40.886Z,12.03
2022-09-11T11:04:12.422Z,8.80
2022-09-11T11:06:53.956Z,7.57
2022-09-11T11:09:31.321Z,8.67
2022-09-11T11:12:13.768Z,8.53
2022-09-11T11:14:54.615Z,7.90
2022-09-11T11:17:25.355Z,10.60
2022-09-11T11:20:02.056Z,8.03
2022-09-11T11:22:42.208Z,8.13
2022-09-11T11:25:15.770Z,7.13
2022-09-11T11:28:00.334Z,6.80
2022-09-11T11:30:31.750Z,8.63
2022-09-11T11:33:14.582Z,7.53
2022-09-11T11:35:46.961Z,6.63
2022-09-11T11:38:18.333Z,8.10
2022-09-11T11:40:49.545Z,7.90
2022-09-11T11:43:21.751Z,8.70
2022-09-11T11:45:53.329Z,11.03
2022-09-11T11:48:26.137Z,10.13
2022-09-11T11:50:55.196Z,9.77
2022-09-11T11:53:25.584Z,8.60
2022-09-11T11:56:01.219Z,8.60
2022-09-11T11:58:40.343Z,13.07
2022-09-11T12:01:13.132Z,10.07
2022-09-11T12:03:44.906Z,10.40
2022-09-11T12:06:12.506Z,11.50
2022-09-11T12:08:44.592Z,10.87
2022-09-11T12:11:13.939Z,11.13
2022-09-11T12:13:44.890Z,12.60
2022-09-11T12:16:17.229Z,11.10
2022-09-11T12:19:04.146Z,12.90
2022-09-11T12:21:37.453Z,6.60
2022-09-11T12:24:17.771Z,10.20
2022-09-11T12:26:45.584Z,10.47
2022-09-11T12:29:49.917Z,9.63
2022-09-11T12:32:43.267Z,8.80
2022-09-11T12:35:19.313Z,9.93
2022-09-11T12:37:54.031Z,9.40
2022-09-11T12:40:26.356Z,10.40
2022-09-11T12:42:59.016Z,8.33
2022-09-11T12:45:36.210Z,12.43
2022-09-11T12:48:07.248Z,9.20
2022-09-11T12:50:35.530Z,8.63
2022-09-11T12:53:06.456Z,9.23
2022-09-11T12:55:39.639Z,8.50
2022-09-11T12:58:09.672Z,9.60
2022-09-11T13:00:39.878Z,8.20
2022-09-11T13:03:17.290Z,8.97
2022-09-11T13:05:45.657Z,9.10
2022-09-11T13:08:17.977Z,7.77
2022-09-11T13:10:46.701Z,8.27
2022-09-11T13:13:47.917Z,9.23
2022-09-11T13:16:19.501Z,8.93
2022-09-11T13:18:48.452Z,8.27
2022-09-11T13:21:20.238Z,6.80
2022-09-11T13:23:49.586Z,8.67
2022-09-11T13:26:30.314Z,8.60
2022-09-11T13:28:59.886Z,8.40
2022-09-11T13:31:33.723Z,8.50
2022-09-11T13:34:04.383Z,7.90
2022-09-11T13:36:33.220Z,8.53
2022-09-11T13:39:04.582Z,7.80
2022-09-11T13:41:34.176Z,7.97
2022-09-11T13:44:03.718Z,6.83
2022-09-11T13:46:32.447Z,7.30
2022-09-11T13:49:28.085Z,8.23
2022-09-11T13:51:56.025Z,9.10
2022-09-11T13:54:28.774Z,7.37
2022-09-11T13:57:23.991Z,7.47
2022-09-11T13:59:54.168Z,8.10
2022-09-11T14:02:46.882Z,7.23
2022-09-11T14:05:20.711Z,7.33
2022-09-11T14:07:56.509Z,10.40
2022-09-11T14:10:29.675Z,8.63
2022-09-11T14:13:03.729Z,6.40
2022-09-11T14:15:40.423Z,6.33
2022-09-11T14:18:14.664Z,8.33
2022-09-11T14:20:45.077Z,7.50
2022-09-11T14:23:17.240Z,6.73
2022-09-11T14:26:06.584Z,6.30
2022-09-11T14:28:37.252Z,8.23
2022-09-11T14:31:08.466Z,7.93
2022-09-11T14:33:36.113Z,6.90
2022-09-11T14:36:07.988Z,6.77
2022-09-11T14:38:50.460Z,7.03
2022-09-11T14:41:24.881Z,5.27
2022-09-11T14:43:53.034Z,8.73
2022-09-11T14:46:20.560Z,6.90
2022-09-11T14:48:48.143Z,7.50
2022-09-11T14:51:17.221Z,8.40
2022-09-11T14:53:45.196Z,6.30
2022-09-11T14:56:12.867Z,9.10
2022-09-11T14:58:42.252Z,7.13
2022-09-11T15:01:12.345Z,5.90
2022-09-11T15:03:40.013Z,7.00
2022-09-11T15:06:12.000Z,5.90
2022-09-11T15:08:41.907Z,5.87
2022-09-11T15:11:09.441Z,7.30
2022-09-11T15:13:37.961Z,6.37
2022-09-11T15:16:12.053Z,4.80
2022-09-11T15:18:40.768Z,6.77
2022-09-11T15:21:08.419Z,7.33
2022-09-11T15:23:36.153Z,7.73
2022-09-11T15:26:05.581Z,8.23
2022-09-11T15:28:33.335Z,7.87
2022-09-11T15:31:01.865Z,6.10
2022-09-11T15:33:30.097Z,7.83
2022-09-11T15:36:02.123Z,7.53
2022-09-11T15:38:29.813Z,7.57
2022-09-11T15:40:58.235Z,6.30
2022-09-11T15:43:35.804Z,6.53
2022-09-11T15:46:09.273Z,5.07
2022-09-11T15:48:36.879Z,7.10
2022-09-11T15:51:05.307Z,9.17
2022-09-11T15:53:33.633Z,6.80
2022-09-11T15:56:06.049Z,8.40
2022-09-11T15:58:35.361Z,7.97
2022-09-11T16:01:03.491Z,5.57
2022-09-11T16:03:31.465Z,5.10
2022-09-11T16:06:00.933Z,6.80
2022-09-11T16:08:29.198Z,7.37
2022-09-11T16:10:56.737Z,9.40
2022-09-11T16:13:25.251Z,7.00
2022-09-11T16:16:02.488Z,9.60
2022-09-11T16:18:30.722Z,11.57
2022-09-11T16:21:01.380Z,8.07
2022-09-11T16:23:34.935Z,7.43
2022-09-11T16:26:04.134Z,6.70
2022-09-11T16:28:33.842Z,6.83
2022-09-11T16:31:03.342Z,7.90
2022-09-11T16:33:31.608Z,6.83
2022-09-11T16:35:59.910Z,8.80
2022-09-11T16:38:27.757Z,7.77
2022-09-11T16:41:02.687Z,7.57
2022-09-11T16:43:31.481Z,6.60
2022-09-11T16:45:59.075Z,6.87
2022-09-11T16:48:28.137Z,7.33
2022-09-11T16:50:57.753Z,6.20
2022-09-11T16:53:27.462Z,12.40
2022-09-11T16:55:57.047Z,7.93
2022-09-11T16:58:24.804Z,11.80
2022-09-11T17:00:54.020Z,12.60
2022-09-11T17:03:22.105Z,10.23
2022-09-11T17:05:52.781Z,8.43
2022-09-11T17:08:21.347Z,6.43
2022-09-11T17:10:50.754Z,6.23
2022-09-11T17:13:19.394Z,8.90
2022-09-11T17:15:47.161Z,10.77
2022-09-11T17:18:14.771Z,7.00
2022-09-11T17:20:42.644Z,6.90
2022-09-11T17:23:12.138Z,8.17
2022-09-11T17:25:41.753Z,6.60
2022-09-11T17:28:09.357Z,9.80
2022-09-11T17:30:39.618Z,7.20
2022-09-11T17:33:07.420Z,6.83
2022-09-11T17:35:35.002Z,6.50
2022-09-11T17:38:03.677Z,7.63
2022-09-11T17:40:32.786Z,6.60
2022-09-11T17:43:01.044Z,6.77
2022-09-11T17:45:30.973Z,10.40
2022-09-11T17:47:58.745Z,6.50
2022-09-11T17:50:28.172Z,7.63
2022-09-11T17:52:56.099Z,7.53
2022-09-11T17:55:23.825Z,7.17
2022-09-11T17:57:55.828Z,7.60
2022-09-11T18:00:23.793Z,8.07
2022-09-11T18:02:56.713Z,8.30
2022-09-11T18:05:24.355Z,7.70
2022-09-11T18:07:52.095Z,6.20
2022-09-11T18:10:20.722Z,6.33
2022-09-11T18:12:50.950Z,7.60
2022-09-11T18:15:19.947Z,6.17
2022-09-11T18:17:47.957Z,7.27
2022-09-11T18:20:17.736Z,7.10
2022-09-11T18:22:45.318Z,9.40
2022-09-11T18:25:13.197Z,8.77
2022-09-11T18:27:41.121Z,7.63
2022-09-11T18:30:09.930Z,9.20
2022-09-11T18:32:39.963Z,7.47
2022-09-11T18:35:08.956Z,7.77
2022-09-11T18:37:36.693Z,11.10
2022-09-11T18:40:05.117Z,7.60
2022-09-11T18:42:32.703Z,6.63
2022-09-11T18:45:00.508Z,9.30
2022-09-11T18:47:30.571Z,7.97
2022-09-11T18:50:01.029Z,13.83
2022-09-11T18:52:30.717Z,11.20
2022-09-11T18:55:00.099Z,8.13
2022-09-11T18:57:28.600Z,9.50
2022-09-11T18:59:56.333Z,8.67
2022-09-11T19:02:23.945Z,6.80
2022-09-11T19:04:52.720Z,9.90
2022-09-11T19:07:32.323Z,7.67
2022-09-11T19:10:00.342Z,7.93
2022-09-11T19:12:28.261Z,10.27
2022-09-11T19:14:55.899Z,9.50
2022-09-11T19:17:23.710Z,8.40
2022-09-11T19:19:51.763Z,8.77
2022-09-11T19:22:22.718Z,7.60
2022-09-11T19:24:50.298Z,11.53
2022-09-11T19:27:18.026Z,8.03
2022-09-11T19:29:46.260Z,9.17
2022-09-11T19:32:14.394Z,13.23
2022-09-11T19:34:46.523Z,12.23
2022-09-11T19:37:15.181Z,11.80
2022-09-11T19:39:44.702Z,8.07
2022-09-11T19:42:12.456Z,7.80
2022-09-11T19:44:40.778Z,11.70
2022-09-11T19:47:09.000Z,8.10
2022-09-11T19:49:37.375Z,7.90
2022-09-11T19:52:05.907Z,10.10
2022-09-11T19:54:34.627Z,9.40
2022-09-11T19:57:04.676Z,8.87
2022-09-11T19:59:32.739Z,10.57
2022-09-11T20:02:00.592Z,9.83
2022-09-11T20:04:28.323Z,8.70
2022-09-11T20:06:56.034Z,8.07
2022-09-11T20:09:32.346Z,10.83
2022-09-11T20:12:01.380Z,10.23
2022-09-11T20:14:31.083Z,8.73
2022-09-11T20:17:00.604Z,10.63
2022-09-11T20:19:28.513Z,11.10
2022-09-11T20:21:56.048Z,8.30
2022-09-11T20:24:23.894Z,9.93
2022-09-11T20:26:53.534Z,9.03
2022-09-11T20:29:21.154Z,11.10
2022-09-11T20:31:51.096Z,10.03
2022-09-11T20:34:20.184Z,9.17
2022-09-11T20:36:48.439Z,10.27
2022-09-11T20:39:21.570Z,9.27
2022-09-11T20:41:49.196Z,9.00
2022-09-11T20:44:17.064Z,9.17
2022-09-11T20:46:47.347Z,10.77
2022-09-11T20:49:16.437Z,6.70
2022-09-11T20:51:44.202Z,10.93
2022-09-11T20:54:11.808Z,8.63
2022-09-11T20:56:39.592Z,11.10
2022-09-11T20:59:07.253Z,10.17
2022-09-11T21:01:35.627Z,9.90
2022-09-11T21:04:04.632Z,14.50
2022-09-11T21:06:35.542Z,9.00
2022-09-11T21:09:07.405Z,9.50
2022-09-11T21:11:36.087Z,8.10
2022-09-11T21:14:07.503Z,10.30
2022-09-11T21:16:37.101Z,11.33
2022-09-11T21:19:12.175Z,13.53
2022-09-11T21:21:41.084Z,8.60
2022-09-11T21:24:11.572Z,9.43
2022-09-11T21:26:42.801Z,7.60
2022-09-11T21:29:12.729Z,10.37
2022-09-11T21:31:40.416Z,10.20
2022-09-11T21:34:08.187Z,7.07
2022-09-11T21:36:36.946Z,8.20
2022-09-11T21:39:06.518Z,10.50
2022-09-11T21:41:34.115Z,8.80
2022-09-11T21:44:01.903Z,9.87
2022-09-11T21:46:29.493Z,11.83
2022-09-11T21:48:57.061Z,8.70
2022-09-11T21:51:24.600Z,11.60
2022-09-11T21:53:58.078Z,11.40
2022-09-11T21:56:29.408Z,9.53
2022-09-11T21:58:57.206Z,10.10
2022-09-11T22:01:27.591Z,10.30
2022-09-11T22:03:56.804Z,8.83
2022-09-11T22:06:26.517Z,11.50
2022-09-11T22:08:56.256Z,9.17
2022-09-11T22:11:25.802Z,9.07
2022-09-11T22:13:55.113Z,9.97
2022-09-11T22:16:23.293Z,10.63
2022-09-11T22:18:54.645Z,11.23
2022-09-11T22:21:24.821Z,8.70
2022-09-11T22:23:52.491Z,8.60
2022-09-11T22:26:21.155Z,9.33
2022-09-11T22:28:48.968Z,12.73
2022-09-11T22:31:22.795Z,11.30
2022-09-11T22:33:50.796Z,9.10
2022-09-11T22:36:20.934Z,8.00
2022-09-11T22:38:50.362Z,9.87
2022-09-11T22:41:18.404Z,9.60
2022-09-11T22:43:47.440Z,9.93
2022-09-11T22:46:15.308Z,10.20
2022-09-11T22:48:44.691Z,10.00
2022-09-11T22:51:12.533Z,8.50
2022-09-11T22:53:40.509Z,9.03
2022-09-11T22:56:09.373Z,7.50
2022-09-11T22:58:38.330Z,11.30
2022-09-11T23:01:07.920Z,8.60
2022-09-11T23:03:35.630Z,7.80
2022-09-11T23:06:27.953Z,9.70
2022-09-11T23:08:56.054Z,8.47
2022-09-11T23:11:23.782Z,8.17
2022-09-11T23:13:52.319Z,7.80
2022-09-11T23:16:21.280Z,7.33
2022-09-11T23:18:49.497Z,9.30
2022-09-11T23:21:18.419Z,9.97
2022-09-11T23:23:54.310Z,8.87
2022-09-11T23:26:22.476Z,8.83
2022-09-11T23:28:50.017Z,8.27
2022-09-11T23:31:20.267Z,7.63
2022-09-11T23:33:48.328Z,13.23
2022-09-11T23:36:18.133Z,13.77
2022-09-11T23:38:46.482Z,17.00
2022-09-11T23:41:14.711Z,11.70
2022-09-11T23:43:42.366Z,12.97
2022-09-11T23:46:10.203Z,13.60
2022-09-11T23:48:37.883Z,10.90
2022-09-11T23:51:07.449Z,11.13
2022-09-11T23:53:36.294Z,10.07
2022-09-11T23:56:04.266Z,11.43
2022-09-11T23:58:36.593Z,12.97
